Time;durP1;ratioP1;P1;durP2;ratioP2;P2;SDS_P1;SDS_P2;PMS_P1;PMS_P2;Temp;Humidity;BMP_temperature;BMP_pressure;BME280_temperature;BME280_humidity;BME280_pressure;Samples;Min_cycle;Max_cycle;Signal;HPM_P1;HPM_P2
2020/12/12 00:00:17;;;;;;;16.30;11.77;;;;;;;11.39;50.50;99020.97;4998000;27;128230;-57
2020/12/12 00:02:43;;;;;;;17.38;11.98;;;;;;;11.37;50.38;99024.00;5005847;27;120685;-58
2020/12/12 00:05:09;;;;;;;16.58;11.77;;;;;;;11.34;50.53;99023.81;5025583;27;97689;-57
2020/12/12 00:07:35;;;;;;;16.30;11.98;;;;;;;11.33;50.39;99023.00;5024711;27;106348;-57
2020/12/12 00:10:01;;;;;;;17.10;11.38;;;;;;;11.31;49.96;99023.28;5023945;27;128085;-57
2020/12/12 00:12:27;;;;;;;16.73;11.63;;;;;;;11.30;50.47;99024.41;5022674;27;97948;-57
2020/12/12 00:14:53;;;;;;;16.52;11.65;;;;;;;11.28;50.58;99015.84;5023959;27;115782;-59
2020/12/12 00:17:19;;;;;;;18.17;12.18;;;;;;;11.27;50.62;99014.22;5023430;27;128612;-59
2020/12/12 00:19:49;;;;;;;16.52;11.15;;;;;;;11.26;50.17;99014.53;4984174;27;126677;-58
2020/12/12 00:22:15;;;;;;;18.30;11.45;;;;;;;11.23;49.91;99009.75;4986652;27;98127;-59
2020/12/12 00:24:41;;;;;;;16.25;11.40;;;;;;;11.22;50.32;99017.06;4967788;27;117161;-57
2020/12/12 00:27:07;;;;;;;16.88;11.90;;;;;;;11.20;50.10;99016.56;4985565;27;111748;-59
2020/12/12 00:29:33;;;;;;;17.05;11.68;;;;;;;11.19;50.13;99016.88;4984039;27;127400;-57
2020/12/12 00:32:00;;;;;;;17.55;11.85;;;;;;;11.17;50.18;99019.09;4968272;27;126668;-58
2020/12/12 00:34:27;;;;;;;16.00;11.40;;;;;;;11.17;49.95;99019.88;4985539;27;111342;-58
2020/12/12 00:36:53;;;;;;;17.63;11.55;;;;;;;11.13;50.24;99018.09;5003638;27;101723;-59
2020/12/12 00:39:20;;;;;;;16.27;11.45;;;;;;;11.12;50.26;99011.91;5002792;27;101839;-58
2020/12/12 00:41:46;;;;;;;17.58;12.02;;;;;;;11.12;50.42;99022.69;4985239;27;98031;-59
2020/12/12 00:44:12;;;;;;;15.90;11.13;;;;;;;11.11;49.71;99013.00;5003611;27;118937;-57
2020/12/12 00:46:38;;;;;;;15.35;10.85;;;;;;;11.11;49.53;99014.91;5004039;27;97788;-60
2020/12/12 00:49:05;;;;;;;17.70;10.80;;;;;;;11.10;49.73;99016.00;5024054;27;98420;-59
2020/12/12 00:51:31;;;;;;;16.17;11.32;;;;;;;11.07;49.98;99012.81;5023423;27;119707;-58
2020/12/12 00:53:57;;;;;;;14.77;10.30;;;;;;;11.06;49.82;99007.72;5008329;27;114589;-58
2020/12/12 00:56:23;;;;;;;14.68;10.40;;;;;;;11.05;49.50;99009.63;5003780;27;105291;-59
2020/12/12 00:58:50;;;;;;;17.42;10.60;;;;;;;11.05;50.23;99006.16;5003173;27;128564;-57
2020/12/12 01:01:16;;;;;;;15.48;10.77;;;;;;;11.03;49.99;99006.44;5003882;27;98446;-57
2020/12/12 01:03:43;;;;;;;13.93;10.43;;;;;;;11.00;49.88;98998.97;5004013;27;107105;-59
2020/12/12 01:06:13;;;;;;;14.85;10.05;;;;;;;11.00;50.01;99004.38;5003126;27;98574;-58
2020/12/12 01:08:40;;;;;;;14.23;10.05;;;;;;;10.99;49.45;98999.25;5003503;27;107795;-58
2020/12/12 01:11:06;;;;;;;14.82;9.60;;;;;;;10.98;50.02;99003.06;5005801;27;98125;-58
2020/12/12 01:13:32;;;;;;;13.48;9.32;;;;;;;10.98;49.74;99003.06;5005479;27;102048;-58
2020/12/12 01:15:58;;;;;;;14.02;9.98;;;;;;;10.98;49.75;99011.94;4986867;27;127871;-57
2020/12/12 01:18:24;;;;;;;12.77;9.02;;;;;;;10.99;49.59;99002.75;5023166;27;106592;-60
2020/12/12 01:20:51;;;;;;;11.65;8.73;;;;;;;11.04;49.54;99002.66;5016896;27;127352;-57
2020/12/12 01:23:17;;;;;;;13.65;8.95;;;;;;;11.05;49.19;99004.25;4984723;27;118177;-58
2020/12/12 01:25:43;;;;;;;12.32;8.82;;;;;;;11.09;49.36;99003.63;5001455;27;128108;-57
2020/12/12 01:28:09;;;;;;;14.93;9.32;;;;;;;11.10;49.51;99002.53;5002841;27;118293;-59
2020/12/12 01:30:35;;;;;;;12.57;8.40;;;;;;;11.11;49.45;98998.72;5002452;27;126656;-59
2020/12/12 01:33:01;;;;;;;12.68;8.82;;;;;;;11.12;49.44;98998.44;5003748;27;97909;-57
2020/12/12 01:35:27;;;;;;;11.80;8.35;;;;;;;11.13;49.25;98993.84;5003292;27;98528;-58
2020/12/12 01:37:53;;;;;;;10.90;7.57;;;;;;;11.15;49.33;98999.69;5002753;27;126666;-57
2020/12/12 01:40:19;;;;;;;10.63;7.53;;;;;;;11.14;48.91;98998.13;5002744;27;127270;-59
2020/12/12 01:42:45;;;;;;;11.05;7.53;;;;;;;11.13;49.50;99000.00;5002541;27;117751;-60
2020/12/12 01:45:12;;;;;;;11.07;7.40;;;;;;;11.13;49.01;99000.00;5002478;27;128660;-57
2020/12/12 01:47:38;;;;;;;11.48;7.53;;;;;;;11.11;49.48;99007.59;4984231;27;128064;-57
2020/12/12 01:50:07;;;;;;;8.98;6.88;;;;;;;11.11;49.83;99002.22;4983131;27;127296;-57
2020/12/12 01:52:33;;;;;;;9.50;6.95;;;;;;;11.10;49.30;99005.22;5023999;27;97822;-58
2020/12/12 01:55:00;;;;;;;10.60;7.50;;;;;;;11.09;49.56;99009.81;5002772;27;124562;-59
2020/12/12 01:57:26;;;;;;;9.65;6.68;;;;;;;11.06;49.49;99003.13;5008648;27;97818;-58
2020/12/12 01:59:52;;;;;;;9.38;6.80;;;;;;;11.10;48.87;99010.63;5002229;27;127429;-57
2020/12/12 02:02:22;;;;;;;10.38;7.40;;;;;;;11.05;49.45;99008.84;4983656;27;117040;-57
2020/12/12 02:04:55;;;;;;;9.40;6.90;;;;;;;11.01;49.33;99003.25;4984142;27;98209;-58
2020/12/12 02:07:22;;;;;;;10.43;6.65;;;;;;;11.03;48.88;98998.34;4984218;27;98292;-57
2020/12/12 02:09:48;;;;;;;8.57;6.60;;;;;;;11.02;49.35;99004.06;5002151;27;99445;-58
2020/12/12 02:12:15;;;;;;;8.43;5.93;;;;;;;11.01;48.69;99005.16;5017279;27;97871;-58
2020/12/12 02:14:41;;;;;;;8.85;6.00;;;;;;;11.00;49.22;99008.94;5004200;27;98430;-59
2020/12/12 02:17:08;;;;;;;8.65;6.05;;;;;;;11.00;49.30;99009.75;4994250;27;98406;-59
2020/12/12 02:19:34;;;;;;;7.45;5.43;;;;;;;10.97;49.73;99007.66;5001727;27;102733;-60
2020/12/12 02:22:01;;;;;;;7.80;5.55;;;;;;;10.99;49.24;99013.53;4983864;27;97929;-58
2020/12/12 02:24:33;;;;;;;7.38;5.13;;;;;;;10.96;48.80;99011.44;5002053;27;109543;-59
2020/12/12 02:27:04;;;;;;;7.38;5.18;;;;;;;10.96;49.24;99018.75;5002818;27;98811;-57
2020/12/12 02:32:26;;;;;;;8.40;5.55;;;;;;;10.94;49.04;99010.16;4976292;27;98078;-58
2020/12/12 02:34:52;;;;;;;7.45;4.90;;;;;;;10.92;48.98;99002.38;5001564;27;126428;-59
2020/12/12 02:37:18;;;;;;;6.75;4.70;;;;;;;10.92;49.67;99010.47;4975346;28;128628;-58
2020/12/12 02:39:44;;;;;;;7.88;5.10;;;;;;;10.92;49.22;99007.75;4993557;27;127390;-57
2020/12/12 02:42:10;;;;;;;6.85;5.00;;;;;;;10.91;49.28;99008.88;5006266;27;117625;-59
2020/12/12 02:44:36;;;;;;;7.32;4.72;;;;;;;10.90;49.41;99009.19;5011108;27;126068;-59
2020/12/12 02:47:02;;;;;;;5.18;4.07;;;;;;;10.90;48.65;99012.69;5025704;27;127971;-57
2020/12/12 02:49:28;;;;;;;7.47;4.65;;;;;;;10.89;49.12;99018.38;5006420;27;127490;-57
2020/12/12 02:51:54;;;;;;;6.32;4.40;;;;;;;10.88;49.21;99022.16;5025572;27;118634;-58
2020/12/12 02:54:20;;;;;;;6.15;4.43;;;;;;;10.89;49.23;99026.47;4999421;27;127789;-57
2020/12/12 02:56:46;;;;;;;6.25;4.47;;;;;;;10.87;49.37;99023.25;4953217;27;127326;-58
2020/12/12 02:59:12;;;;;;;6.43;4.45;;;;;;;10.87;49.10;99015.97;4987231;27;108460;-58
2020/12/12 03:01:40;;;;;;;5.85;4.15;;;;;;;10.85;49.20;99017.41;5006187;27;97942;-59
2020/12/12 03:04:06;;;;;;;6.55;4.18;;;;;;;10.86;49.33;99019.78;5003707;27;98575;-59
2020/12/12 03:06:32;;;;;;;6.07;4.18;;;;;;;10.85;49.59;99017.41;5013436;27;118489;-57
2020/12/12 03:08:58;;;;;;;6.53;4.05;;;;;;;10.83;49.37;99020.38;5024702;27;128335;-58
2020/12/12 03:11:24;;;;;;;6.25;3.92;;;;;;;10.86;49.03;99018.97;5024989;27;118783;-57
2020/12/12 03:13:50;;;;;;;5.80;4.03;;;;;;;10.85;48.91;99017.41;5005685;27;126113;-58
2020/12/12 03:16:16;;;;;;;5.38;3.53;;;;;;;10.86;49.67;99008.19;5025001;27;127728;-57
2020/12/12 03:18:42;;;;;;;6.65;3.97;;;;;;;10.87;49.48;99010.59;5025498;27;128208;-57
2020/12/12 03:21:08;;;;;;;4.43;3.35;;;;;;;10.85;49.43;99010.09;5025230;27;117722;-60
2020/12/12 03:23:34;;;;;;;4.63;3.35;;;;;;;10.87;49.73;99007.09;5006942;27;98246;-58
2020/12/12 03:26:00;;;;;;;5.03;3.42;;;;;;;10.88;48.94;99012.16;5026285;27;97996;-58
2020/12/12 03:28:26;;;;;;;4.70;3.22;;;;;;;10.87;49.48;99005.19;5024800;27;127448;-59
2020/12/12 03:30:52;;;;;;;4.40;3.22;;;;;;;10.89;49.12;99010.28;5025537;27;116509;-59
2020/12/12 03:33:18;;;;;;;5.50;3.55;;;;;;;10.89;49.40;99011.09;5023516;27;128013;-57
2020/12/12 03:35:45;;;;;;;4.72;3.30;;;;;;;10.90;49.42;99012.69;5022585;27;98330;-58
2020/12/12 03:38:11;;;;;;;4.60;2.97;;;;;;;10.92;49.41;99013.16;5024807;27;98032;-59
2020/12/12 03:40:37;;;;;;;4.10;3.25;;;;;;;10.91;49.02;99014.25;5024108;27;117812;-57
2020/12/12 03:43:03;;;;;;;4.85;3.25;;;;;;;10.92;49.12;99009.66;5024595;27;127939;-60
2020/12/12 03:45:29;;;;;;;3.92;2.85;;;;;;;10.94;48.67;99010.16;5024267;27;128149;-58
2020/12/12 03:47:55;;;;;;;4.15;3.20;;;;;;;10.93;49.44;99016.69;5004735;27;126808;-57
2020/12/12 03:50:27;;;;;;;4.35;3.10;;;;;;;10.93;49.35;99013.97;5025148;27;117804;-57
2020/12/12 03:52:57;;;;;;;3.85;2.88;;;;;;;10.94;49.12;99016.34;5018077;27;98927;-58
2020/12/12 03:55:23;;;;;;;3.97;2.88;;;;;;;10.96;49.64;99022.22;5003854;27;118623;-59
2020/12/12 03:57:49;;;;;;;4.07;3.00;;;;;;;10.98;49.58;99019.25;5004430;27;97861;-57
2020/12/12 04:00:15;;;;;;;4.20;2.85;;;;;;;10.96;49.17;99014.13;5004238;27;118644;-57
2020/12/12 04:02:41;;;;;;;3.40;2.67;;;;;;;10.97;49.66;99007.66;5003371;27;129060;-59
2020/12/12 04:05:07;;;;;;;3.88;2.72;;;;;;;10.99;49.06;99012.75;5004401;27;98117;-58
2020/12/12 04:07:33;;;;;;;3.47;2.80;;;;;;;10.99;49.21;99018.94;5003126;27;125309;-57
2020/12/12 04:09:59;;;;;;;3.30;2.58;;;;;;;11.00;49.70;99019.72;5003623;27;117572;-57
2020/12/12 04:12:25;;;;;;;5.03;2.95;;;;;;;11.00;49.40;99017.84;5002809;27;128639;-57
2020/12/12 04:14:51;;;;;;;3.90;2.75;;;;;;;11.01;49.46;99015.94;4984952;27;128305;-57
2020/12/12 04:17:17;;;;;;;3.70;2.65;;;;;;;11.00;49.48;99009.75;4951639;27;127127;-57
2020/12/12 04:19:43;;;;;;;3.65;2.58;;;;;;;11.00;49.74;99020.53;5004105;27;116995;-59
2020/12/12 04:22:09;;;;;;;4.18;2.83;;;;;;;11.02;49.61;99012.13;5003541;27;128045;-57
2020/12/12 04:24:35;;;;;;;3.60;2.67;;;;;;;11.01;49.70;99013.25;5002680;27;128124;-57
2020/12/12 04:27:02;;;;;;;3.83;2.53;;;;;;;10.98;49.62;99014.66;5003698;27;126806;-58
2020/12/12 04:29:28;;;;;;;3.05;2.25;;;;;;;10.99;49.38;99010.84;5004443;27;97866;-59
2020/12/12 04:31:54;;;;;;;3.40;2.40;;;;;;;10.99;49.96;99007.34;5003735;27;127952;-57
2020/12/12 04:34:20;;;;;;;3.25;2.40;;;;;;;10.97;49.16;99009.56;4967666;27;127444;-58
2020/12/12 04:36:46;;;;;;;3.88;2.60;;;;;;;10.97;49.26;99007.66;5003954;27;104611;-58
2020/12/12 04:39:13;;;;;;;3.58;2.38;;;;;;;10.97;49.88;99013.06;5004167;27;116513;-58
2020/12/12 04:41:39;;;;;;;3.08;2.40;;;;;;;10.96;49.53;99019.53;5004699;27;98204;-59
2020/12/12 04:44:05;;;;;;;3.40;2.47;;;;;;;10.96;49.38;99014.13;4967845;27;114166;-59
2020/12/12 04:46:31;;;;;;;3.92;2.53;;;;;;;10.95;49.74;99001.75;4967963;27;126082;-57
2020/12/12 04:48:57;;;;;;;3.17;2.35;;;;;;;10.94;49.95;99008.28;4985351;27;119025;-57
2020/12/12 04:51:24;;;;;;;3.30;2.35;;;;;;;10.93;49.82;99017.47;5004669;27;102496;-59
2020/12/12 04:53:50;;;;;;;3.38;2.53;;;;;;;10.93;49.05;99006.69;4985064;27;116431;-59
2020/12/12 04:56:22;;;;;;;3.22;2.45;;;;;;;10.94;49.31;99015.56;4967830;27;114376;-57
2020/12/12 04:58:50;;;;;;;3.53;2.42;;;;;;;10.96;49.74;99005.25;4985391;27;107814;-58
2020/12/12 05:01:17;;;;;;;3.78;2.70;;;;;;;10.95;49.91;99009.84;5002446;27;98870;-58
2020/12/12 05:03:43;;;;;;;3.30;2.50;;;;;;;10.95;49.63;99011.75;4969187;27;98758;-57
2020/12/12 05:06:09;;;;;;;4.43;3.10;;;;;;;10.97;50.07;99007.66;4969009;27;99014;-59
2020/12/12 05:08:36;;;;;;;3.40;2.90;;;;;;;10.98;49.51;99011.16;5003583;27;115903;-58
2020/12/12 05:11:02;;;;;;;4.00;3.05;;;;;;;10.98;49.54;99006.56;5002688;27;104348;-57
2020/12/12 05:13:28;;;;;;;3.83;3.00;;;;;;;10.98;49.49;99003.88;4969042;27;98345;-57
2020/12/12 05:15:56;;;;;;;3.22;2.85;;;;;;;10.98;49.74;99000.38;5002639;27;98462;-59
2020/12/12 05:18:22;;;;;;;3.30;2.75;;;;;;;10.99;49.59;98999.25;5002932;27;110624;-57
2020/12/12 05:20:49;;;;;;;3.10;2.50;;;;;;;11.00;49.95;99008.94;5002979;27;98925;-57
2020/12/12 05:23:20;;;;;;;2.85;2.20;;;;;;;11.00;49.79;99006.25;5003626;27;98136;-58
2020/12/12 05:25:47;;;;;;;2.97;2.15;;;;;;;11.01;49.21;99007.84;5003935;27;98083;-57
2020/12/12 05:28:15;;;;;;;3.08;2.47;;;;;;;11.01;49.61;98997.88;5004246;27;97947;-59
2020/12/12 05:30:44;;;;;;;3.35;2.50;;;;;;;11.01;49.88;99003.25;5002984;27;98647;-57
2020/12/12 05:33:12;;;;;;;2.40;1.88;;;;;;;11.01;49.75;99000.56;4984618;27;115044;-59
2020/12/12 05:35:39;;;;;;;3.63;2.33;;;;;;;11.02;49.17;98998.66;5002655;27;98374;-57
2020/12/12 05:38:06;;;;;;;2.83;2.28;;;;;;;11.02;49.76;99004.06;5000336;27;98064;-57
2020/12/12 05:40:35;;;;;;;2.83;2.22;;;;;;;11.02;49.45;99004.06;4998595;27;99059;-57
2020/12/12 05:43:06;;;;;;;3.20;2.20;;;;;;;11.00;49.70;99006.25;5000423;27;98810;-58
2020/12/12 05:45:32;;;;;;;2.63;2.25;;;;;;;11.02;49.31;99007.53;4997802;27;113201;-57
2020/12/12 05:47:58;;;;;;;3.13;2.13;;;;;;;11.03;49.97;99001.03;5000937;27;97722;-57
2020/12/12 05:50:25;;;;;;;2.80;2.15;;;;;;;11.05;49.54;99003.44;4996336;27;125773;-58
2020/12/12 05:52:53;;;;;;;2.45;2.05;;;;;;;11.04;49.88;98999.97;5000835;27;98860;-57
2020/12/12 05:55:27;;;;;;;2.38;2.05;;;;;;;11.04;49.51;99005.34;4995727;27;98032;-57
2020/12/12 05:57:53;;;;;;;2.45;1.90;;;;;;;11.05;49.53;99006.16;5003632;27;97734;-58
2020/12/12 06:00:23;;;;;;;2.50;1.90;;;;;;;11.03;49.84;98997.56;4982193;27;128773;-58
2020/12/12 06:02:57;;;;;;;2.70;2.00;;;;;;;11.02;49.57;98996.75;5001827;27;98334;-57
2020/12/12 06:05:32;;;;;;;2.65;2.00;;;;;;;11.03;49.75;99005.63;4984590;27;97968;-57
2020/12/12 06:08:03;;;;;;;2.38;1.70;;;;;;;11.03;49.86;99006.44;5003729;27;98053;-58
2020/12/12 06:10:33;;;;;;;2.42;2.00;;;;;;;11.04;49.60;99005.34;5000885;27;117483;-58
2020/12/12 06:13:04;;;;;;;2.50;1.88;;;;;;;10.99;50.28;99008.16;5004574;27;118502;-57
2020/12/12 06:15:40;;;;;;;2.17;1.63;;;;;;;10.99;50.01;99012.75;5006470;27;98152;-57
2020/12/12 06:18:12;;;;;;;1.95;1.60;;;;;;;10.99;49.57;99004.66;5006643;27;107446;-58
2020/12/12 06:20:39;;;;;;;2.58;2.10;;;;;;;11.02;50.11;99007.53;5005653;27;97964;-57
2020/12/12 06:23:08;;;;;;;2.40;1.85;;;;;;;10.97;49.87;99013.06;4996823;27;98623;-59
2020/12/12 06:25:34;;;;;;;2.95;1.90;;;;;;;10.99;49.96;99012.75;4965137;27;126664;-58
2020/12/12 06:28:00;;;;;;;2.53;2.10;;;;;;;10.98;49.71;99003.88;5006321;27;104504;-58
2020/12/12 06:30:26;;;;;;;2.22;1.85;;;;;;;10.97;49.79;99004.97;4985850;27;126528;-59
2020/12/12 06:33:03;;;;;;;2.40;1.90;;;;;;;10.93;50.17;99012.06;4987479;27;97977;-59
2020/12/12 06:35:35;;;;;;;2.85;2.22;;;;;;;10.94;50.07;99013.66;5006049;27;98510;-57
2020/12/12 06:38:21;;;;;;;2.50;2.10;;;;;;;10.90;50.08;99015.38;5006722;27;97898;-57
2020/12/12 06:40:48;;;;;;;2.75;2.20;;;;;;;10.95;50.08;99012.56;5005587;27;98434;-59
2020/12/12 06:43:33;;;;;;;3.38;2.50;;;;;;;10.91;49.96;99016.16;4969226;27;99230;-57
2020/12/12 06:46:01;;;;;;;3.72;3.10;;;;;;;10.93;49.98;99017.47;5003217;27;98477;-58
2020/12/12 06:48:29;;;;;;;3.70;2.90;;;;;;;10.94;49.98;99012.88;5003274;27;97837;-57
2020/12/12 06:50:56;;;;;;;3.38;3.08;;;;;;;10.95;49.90;99017.16;5003339;27;98369;-57
2020/12/12 06:53:30;;;;;;;3.38;2.88;;;;;;;10.94;50.26;99020.97;4995049;27;99029;-58
2020/12/12 06:56:14;;;;;;;2.92;2.45;;;;;;;10.93;49.90;99019.38;5024479;27;98332;-58
2020/12/12 06:58:43;;;;;;;3.20;2.58;;;;;;;10.95;50.16;99023.34;5024164;27;97816;-59
2020/12/12 07:01:32;;;;;;;3.20;2.53;;;;;;;10.92;50.44;99023.94;5022757;27;99273;-58
2020/12/12 07:04:07;;;;;;;2.97;2.55;;;;;;;10.97;49.65;99026.53;5023874;27;98938;-58
2020/12/12 07:06:34;;;;;;;3.50;2.65;;;;;;;10.98;49.79;99030.81;5005904;27;127583;-57
2020/12/12 07:09:08;;;;;;;2.55;2.17;;;;;;;10.97;50.24;99029.25;5003831;27;97947;-60
2020/12/12 07:11:34;;;;;;;3.53;2.75;;;;;;;11.00;49.65;99028.63;5002862;27;98772;-57
2020/12/12 07:14:01;;;;;;;3.65;2.85;;;;;;;11.03;50.02;99029.91;5002580;27;116757;-59
2020/12/12 07:16:28;;;;;;;3.92;3.10;;;;;;;11.02;49.41;99031.00;5002599;27;110477;-57
2020/12/12 07:18:54;;;;;;;4.13;3.17;;;;;;;11.04;49.66;99035.00;4976763;27;98360;-59
2020/12/12 07:21:20;;;;;;;4.78;3.30;;;;;;;11.07;49.57;99030.88;5004740;27;106689;-57
2020/12/12 07:23:47;;;;;;;4.20;3.03;;;;;;;11.07;50.00;99036.28;5002666;27;112878;-57
2020/12/12 07:26:14;;;;;;;3.72;2.90;;;;;;;11.08;50.29;99035.16;5011156;27;97966;-58
2020/12/12 07:28:40;;;;;;;3.30;2.97;;;;;;;11.09;50.30;99041.38;5002597;27;98075;-58
2020/12/12 07:31:06;;;;;;;3.50;2.95;;;;;;;11.10;50.21;99041.06;5002169;27;128021;-59
2020/12/12 07:33:32;;;;;;;3.65;2.80;;;;;;;11.13;50.22;99040.47;5002591;27;103232;-59
2020/12/12 07:35:59;;;;;;;3.30;2.90;;;;;;;11.15;50.32;99048.25;5002944;27;97985;-57
2020/12/12 07:38:25;;;;;;;3.60;2.80;;;;;;;11.16;50.42;99041.75;4984451;27;98071;-57
2020/12/12 07:40:51;;;;;;;3.28;2.72;;;;;;;11.19;50.47;99046.53;5001290;27;127041;-59
2020/12/12 07:43:17;;;;;;;3.75;3.28;;;;;;;11.21;50.80;99050.53;5001660;27;125976;-57
2020/12/12 07:48:22;;;;;;;3.95;3.17;;;;;;;11.22;50.77;99057.50;5001171;27;99404;-59
2020/12/12 07:50:48;;;;;;;3.25;2.83;;;;;;;11.28;50.89;99052.81;5002286;27;99491;-57
2020/12/12 07:53:16;;;;;;;3.63;2.88;;;;;;;11.27;50.81;99057.38;5012953;27;98471;-57
2020/12/12 07:55:52;;;;;;;4.22;3.22;;;;;;;11.29;51.53;99062.50;5002038;27;97939;-58
2020/12/12 07:58:20;;;;;;;3.83;2.92;;;;;;;11.33;51.53;99063.47;5014070;27;98141;-58
2020/12/12 08:00:58;;;;;;;3.65;2.92;;;;;;;11.34;51.15;99072.34;5010484;27;98726;-59
2020/12/12 08:03:25;;;;;;;4.20;3.17;;;;;;;11.39;51.62;99072.22;5000048;27;113191;-58
2020/12/12 08:06:06;;;;;;;3.75;2.95;;;;;;;11.40;51.70;99073.84;4978380;27;127524;-57
2020/12/12 08:08:32;;;;;;;3.60;2.95;;;;;;;11.44;51.52;99072.13;5002547;27;97841;-58
2020/12/12 08:11:02;;;;;;;3.50;2.90;;;;;;;11.48;51.44;99078.50;5011122;27;121857;-58
2020/12/12 08:13:28;;;;;;;3.60;2.80;;;;;;;11.53;51.88;99081.88;5004112;27;98486;-58
2020/12/12 08:16:21;;;;;;;3.30;2.60;;;;;;;11.60;51.62;99080.66;4982798;27;97913;-58
2020/12/12 08:18:47;;;;;;;3.60;2.72;;;;;;;11.64;52.09;99079.72;5000849;27;98045;-58
2020/12/12 08:21:15;;;;;;;3.00;2.58;;;;;;;11.71;51.56;99080.09;5000760;27;128324;-58
2020/12/12 08:23:42;;;;;;;2.85;2.40;;;;;;;11.79;51.91;99076.66;4999593;27;100155;-58
2020/12/12 08:26:12;;;;;;;3.10;2.30;;;;;;;11.83;52.01;99078.72;4997122;27;98512;-59
2020/12/12 08:28:38;;;;;;;2.60;2.03;;;;;;;11.87;51.56;99079.72;5022184;27;102656;-57
2020/12/12 08:31:21;;;;;;;3.28;2.40;;;;;;;11.93;51.68;99083.91;5007592;27;128586;-57
2020/12/12 08:33:53;;;;;;;3.05;2.50;;;;;;;11.96;51.86;99086.78;5001878;27;98503;-58
2020/12/12 08:36:25;;;;;;;2.83;2.20;;;;;;;12.02;51.97;99087.44;5005753;27;97851;-59
2020/12/12 08:39:06;;;;;;;3.03;2.27;;;;;;;12.10;51.81;99091.28;5002168;27;97774;-57
2020/12/12 08:41:36;;;;;;;3.78;2.30;;;;;;;12.15;51.68;99086.56;5015512;27;98838;-58
2020/12/12 08:44:03;;;;;;;2.28;1.98;;;;;;;12.23;51.97;99088.50;5021943;27;104520;-57
2020/12/12 08:46:29;;;;;;;3.30;2.28;;;;;;;12.31;52.01;99091.56;5006800;27;98638;-58
2020/12/12 08:48:56;;;;;;;12.43;10.15;;;;;;;12.41;51.71;99091.28;5006346;27;98269;-59
2020/12/12 08:51:31;;;;;;;19.77;16.75;;;;;;;12.51;51.82;99094.50;4966884;27;98736;-59
2020/12/12 08:53:58;;;;;;;22.80;20.50;;;;;;;12.61;51.74;99098.81;5009382;27;99115;-57
2020/12/12 08:56:29;;;;;;;21.58;19.38;;;;;;;12.67;51.88;99105.69;5007084;27;99968;-58
2020/12/12 08:59:07;;;;;;;20.75;18.58;;;;;;;12.78;51.98;99108.91;4999891;27;97855;-59
2020/12/12 09:01:42;;;;;;;18.33;16.50;;;;;;;12.80;52.09;99103.97;5013379;27;98426;-57
2020/12/12 09:04:08;;;;;;;31.27;28.08;;;;;;;12.90;51.96;99111.78;5001645;27;98037;-60
2020/12/12 09:06:57;;;;;;;30.67;27.67;;;;;;;12.96;52.33;99109.72;5007555;27;97963;-59
2020/12/12 09:09:30;;;;;;;28.88;25.88;;;;;;;13.02;52.40;99111.97;5009453;27;97901;-59
2020/12/12 09:12:07;;;;;;;27.27;24.60;;;;;;;13.09;52.50;99106.09;5012834;27;98346;-57
2020/12/12 09:14:35;;;;;;;25.38;22.88;;;;;;;13.17;52.80;99109.94;5001114;27;98507;-59
2020/12/12 09:17:09;;;;;;;24.30;21.90;;;;;;;13.23;52.56;99114.09;4998640;27;116626;-57
2020/12/12 09:19:36;;;;;;;21.75;19.65;;;;;;;13.33;52.96;99113.00;5000602;27;97850;-57
2020/12/12 09:22:05;;;;;;;19.02;17.23;;;;;;;13.40;53.04;99106.00;4982165;27;104400;-57
2020/12/12 09:24:31;;;;;;;18.52;16.77;;;;;;;13.49;52.53;99109.47;4992795;27;113448;-58
2020/12/12 09:26:58;;;;;;;17.67;16.05;;;;;;;13.63;52.79;99103.09;5000141;27;115717;-59
2020/12/12 09:29:24;;;;;;;18.58;16.77;;;;;;;13.78;53.04;99109.94;5001574;27;97840;-57
2020/12/12 09:31:51;;;;;;;16.92;15.32;;;;;;;13.91;52.89;99111.66;5001300;27;103795;-57
2020/12/12 09:34:18;;;;;;;15.65;14.13;;;;;;;14.12;52.94;99119.91;5001834;27;99019;-60
2020/12/12 09:36:44;;;;;;;14.57;13.18;;;;;;;14.28;52.53;99109.34;5012967;27;97906;-60
2020/12/12 09:39:11;;;;;;;14.27;12.88;;;;;;;14.49;52.59;99113.72;5000636;27;106409;-59
2020/12/12 09:41:37;;;;;;;13.75;12.35;;;;;;;14.65;52.25;99113.19;5001243;27;97866;-59
2020/12/12 09:44:03;;;;;;;12.25;11.15;;;;;;;14.81;52.43;99113.44;4999801;27;128343;-57
2020/12/12 09:46:29;;;;;;;11.50;10.50;;;;;;;14.99;52.77;99112.22;4999201;27;127410;-59
2020/12/12 09:48:55;;;;;;;10.65;9.65;;;;;;;15.15;52.67;99115.13;4999763;27;119021;-58
2020/12/12 09:51:22;;;;;;;10.45;9.45;;;;;;;15.13;53.08;99112.78;4998222;27;128113;-59
2020/12/12 09:53:48;;;;;;;13.15;11.85;;;;;;;15.10;53.28;99120.78;5000135;27;98264;-58
2020/12/12 09:56:14;;;;;;;14.07;12.68;;;;;;;15.06;54.20;99112.50;5012109;27;97941;-58
2020/12/12 09:58:41;;;;;;;16.33;14.75;;;;;;;14.99;54.57;99117.63;5019839;27;98029;-59
2020/12/12 10:01:07;;;;;;;25.02;22.73;;;;;;;14.90;54.55;99116.91;5017738;27;114471;-59
2020/12/12 10:03:33;;;;;;;23.67;21.55;;;;;;;14.80;55.33;99123.50;5019565;27;126935;-60
2020/12/12 10:05:59;;;;;;;21.77;19.77;;;;;;;14.75;55.58;99115.53;5000570;27;126077;-59
2020/12/12 10:08:26;;;;;;;21.42;19.52;;;;;;;14.66;56.00;99117.50;4992998;27;117829;-59
2020/12/12 10:10:52;;;;;;;19.08;17.38;;;;;;;14.57;56.01;99114.81;5016199;27;98444;-59
2020/12/12 10:13:18;;;;;;;18.25;16.65;;;;;;;14.52;56.53;99119.63;5020392;27;99582;-57
2020/12/12 10:15:44;;;;;;;17.15;15.55;;;;;;;14.46;56.42;99117.09;5020181;27;116336;-59
2020/12/12 10:18:10;;;;;;;16.15;14.75;;;;;;;14.38;56.64;99131.47;5019616;27;117990;-59
2020/12/12 10:20:37;;;;;;;15.35;13.95;;;;;;;14.32;56.85;99123.84;5019612;27;128060;-57
2020/12/12 10:23:04;;;;;;;15.13;13.73;;;;;;;14.24;56.73;99126.25;5021793;27;98540;-58
2020/12/12 10:25:30;;;;;;;14.70;13.30;;;;;;;14.21;56.57;99132.31;5019717;27;97729;-57
2020/12/12 10:27:56;;;;;;;13.85;12.55;;;;;;;14.17;57.11;99125.94;5020022;27;97806;-58
2020/12/12 10:30:23;;;;;;;13.05;11.75;;;;;;;14.10;57.08;99133.75;5020007;27;99253;-57
2020/12/12 10:32:50;;;;;;;12.48;11.27;;;;;;;14.04;56.60;99135.06;5018720;27;98639;-59
2020/12/12 10:35:16;;;;;;;11.38;10.30;;;;;;;14.03;57.07;99138.09;5019839;27;98473;-57
2020/12/12 10:37:42;;;;;;;11.43;10.05;;;;;;;14.00;56.98;99139.53;5020397;27;118409;-59
2020/12/12 10:40:21;;;;;;;9.88;8.95;;;;;;;13.94;57.04;99136.19;5017327;27;98041;-59
2020/12/12 10:42:47;;;;;;;9.65;8.75;;;;;;;13.91;57.10;99134.16;5020590;27;98522;-59
2020/12/12 10:45:13;;;;;;;8.93;8.02;;;;;;;13.89;57.17;99136.38;5020074;27;98493;-57
2020/12/12 10:47:39;;;;;;;8.20;7.43;;;;;;;13.86;57.09;99136.19;5019904;27;99904;-57
2020/12/12 10:50:06;;;;;;;8.32;7.53;;;;;;;13.82;57.10;99133.34;5020695;27;98567;-57
2020/12/12 10:52:34;;;;;;;7.80;7.00;;;;;;;13.82;57.13;99136.03;4999625;27;127713;-59
2020/12/12 10:55:00;;;;;;;7.30;6.60;;;;;;;13.82;57.14;99132.53;5020173;27;98066;-59
2020/12/12 10:57:26;;;;;;;6.45;5.85;;;;;;;13.82;57.21;99132.53;5020951;27;97821;-59
2020/12/12 10:59:52;;;;;;;7.00;6.30;;;;;;;13.81;56.84;99139.09;5020479;27;99354;-59
2020/12/12 11:02:18;;;;;;;6.80;6.20;;;;;;;13.84;56.88;99133.81;5003046;27;99126;-59
2020/12/12 11:04:45;;;;;;;5.93;5.43;;;;;;;13.86;57.01;99130.78;5002521;27;106329;-59
2020/12/12 11:07:11;;;;;;;5.68;5.18;;;;;;;13.89;56.82;99132.88;5023833;27;97859;-59
2020/12/12 11:09:38;;;;;;;5.50;5.00;;;;;;;13.89;56.73;99127.44;5013838;27;99077;-59
2020/12/12 11:12:04;;;;;;;4.78;4.28;;;;;;;13.89;56.75;99132.88;5001897;27;99272;-57
2020/12/12 11:14:33;;;;;;;5.63;4.50;;;;;;;13.91;56.36;99130.63;5008590;27;97808;-57
2020/12/12 11:17:02;;;;;;;4.57;4.18;;;;;;;13.90;56.62;99135.25;5003378;27;97982;-57
2020/12/12 11:19:28;;;;;;;4.22;3.83;;;;;;;13.89;56.67;99133.66;5002259;27;98013;-59
2020/12/12 11:21:54;;;;;;;4.15;3.72;;;;;;;13.88;56.87;99129.38;5003548;27;98665;-57
2020/12/12 11:24:22;;;;;;;5.10;4.05;;;;;;;13.87;56.79;99126.97;5002640;27;97989;-59
2020/12/12 11:26:48;;;;;;;3.85;3.55;;;;;;;13.90;56.46;99131.75;5003046;27;98046;-57
2020/12/12 11:29:17;;;;;;;4.15;3.75;;;;;;;13.91;56.82;99136.03;5017050;27;98604;-57
2020/12/12 11:31:46;;;;;;;4.18;3.78;;;;;;;13.92;56.48;99132.22;5021335;27;97926;-57